createdAt,value
2022-10-24T00:02:21.358Z,61.70
2022-10-24T00:04:47.870Z,61.70
2022-10-24T00:07:14.304Z,61.70
2022-10-24T00:09:40.752Z,61.00
2022-10-24T00:12:07.164Z,61.50
2022-10-24T00:14:33.604Z,61.00
2022-10-24T00:17:00.024Z,61.60
2022-10-24T00:19:26.484Z,61.60
2022-10-24T00:21:52.917Z,61.00
2022-10-24T00:24:19.373Z,61.00
2022-10-24T00:26:45.804Z,61.60
2022-10-24T00:29:12.236Z,60.90
2022-10-24T00:31:38.714Z,60.80
2022-10-24T00:34:05.138Z,64.60
2022-10-24T00:36:31.594Z,61.50
2022-10-24T00:38:58.025Z,61.40
2022-10-24T00:41:24.475Z,60.90
2022-10-24T00:43:50.909Z,61.60
2022-10-24T00:46:17.357Z,61.40
2022-10-24T00:48:43.842Z,60.90
2022-10-24T00:51:10.295Z,60.80
2022-10-24T00:53:36.734Z,60.80
2022-10-24T00:56:03.184Z,60.90
2022-10-24T00:58:29.628Z,60.90
2022-10-24T01:00:56.098Z,60.80
2022-10-24T01:03:22.591Z,60.80
2022-10-24T01:05:49.040Z,61.60
2022-10-24T01:08:15.483Z,60.80
2022-10-24T01:10:41.983Z,60.80
2022-10-24T01:13:08.434Z,61.30
2022-10-24T01:15:34.861Z,61.40
2022-10-24T01:18:01.300Z,60.60
2022-10-24T01:20:27.720Z,60.80
2022-10-24T01:22:54.172Z,60.70
2022-10-24T01:25:20.660Z,61.30
2022-10-24T01:27:47.320Z,61.30
2022-10-24T01:30:14.040Z,60.70
2022-10-24T01:32:40.467Z,61.40
2022-10-24T01:35:06.874Z,61.30
2022-10-24T01:37:33.317Z,61.40
2022-10-24T01:39:59.753Z,60.60
2022-10-24T01:42:26.200Z,60.60
2022-10-24T01:44:52.624Z,60.60
2022-10-24T01:47:19.052Z,61.20
2022-10-24T01:49:45.476Z,60.80
2022-10-24T01:54:38.284Z,61.40
2022-10-24T01:57:04.747Z,60.60
2022-10-24T01:59:31.202Z,60.60
2022-10-24T02:01:57.635Z,60.60
2022-10-24T02:04:24.072Z,61.20
2022-10-24T02:06:50.508Z,60.60
2022-10-24T02:09:16.983Z,60.60
2022-10-24T02:11:43.424Z,60.60
2022-10-24T02:14:09.839Z,61.20
2022-10-24T02:16:36.251Z,61.20
2022-10-24T02:19:02.675Z,60.60
2022-10-24T02:21:29.101Z,60.60
2022-10-24T02:23:55.519Z,61.20
2022-10-24T02:26:21.943Z,60.60
2022-10-24T02:28:48.412Z,61.20
2022-10-24T02:31:14.833Z,60.60
2022-10-24T02:33:41.244Z,61.20
2022-10-24T02:36:07.651Z,61.20
2022-10-24T02:38:34.071Z,61.20
2022-10-24T02:41:00.498Z,60.50
2022-10-24T02:43:26.923Z,61.20
2022-10-24T02:45:53.336Z,61.20
2022-10-24T02:48:19.793Z,61.10
2022-10-24T02:50:46.251Z,60.50
2022-10-24T02:53:12.741Z,60.50
2022-10-24T02:55:39.156Z,60.50
2022-10-24T02:58:05.564Z,61.10
2022-10-24T03:00:32.030Z,60.50
2022-10-24T03:02:58.464Z,60.50
2022-10-24T03:05:24.897Z,61.10
2022-10-24T03:07:51.345Z,61.20
2022-10-24T03:10:17.789Z,60.40
2022-10-24T03:12:44.359Z,61.20
2022-10-24T03:15:11.063Z,61.10
2022-10-24T03:17:37.503Z,61.20
2022-10-24T03:20:03.920Z,60.50
2022-10-24T03:22:30.815Z,61.20
2022-10-24T03:24:57.403Z,61.10
2022-10-24T03:27:23.816Z,60.50
2022-10-24T03:29:50.263Z,60.50
2022-10-24T03:32:16.780Z,61.10
2022-10-24T03:34:43.256Z,61.10
2022-10-24T03:37:09.661Z,61.10
2022-10-24T03:39:36.087Z,61.10
2022-10-24T03:42:02.501Z,60.40
2022-10-24T03:44:28.935Z,61.10
2022-10-24T03:46:55.351Z,61.10
2022-10-24T03:49:21.787Z,60.40
2022-10-24T03:51:48.197Z,60.30
2022-10-24T03:54:14.623Z,60.40
2022-10-24T03:56:41.045Z,61.10
2022-10-24T03:59:07.484Z,61.10
2022-10-24T04:01:33.975Z,60.40
2022-10-24T04:04:00.416Z,61.80
2022-10-24T04:06:26.848Z,61.10
2022-10-24T04:08:53.255Z,61.10
2022-10-24T04:11:19.696Z,60.40
2022-10-24T04:13:46.131Z,61.00
2022-10-24T04:16:12.553Z,61.00
2022-10-24T04:18:38.972Z,60.40
2022-10-24T04:21:05.388Z,60.30
2022-10-24T04:23:31.810Z,60.40
2022-10-24T04:25:58.242Z,60.40
2022-10-24T04:28:24.665Z,60.30
2022-10-24T04:30:51.072Z,60.30
2022-10-24T04:33:17.485Z,60.90
2022-10-24T04:35:43.899Z,60.90
2022-10-24T04:38:10.317Z,60.90
2022-10-24T04:40:36.761Z,60.30
2022-10-24T04:43:03.175Z,60.90
2022-10-24T04:45:29.589Z,60.10
2022-10-24T04:47:56.007Z,60.80
2022-10-24T04:50:22.440Z,60.20
2022-10-24T04:52:48.867Z,60.80
2022-10-24T04:55:15.304Z,60.70
2022-10-24T04:57:41.896Z,60.90
2022-10-24T05:00:08.537Z,60.40
2022-10-24T05:02:35.044Z,61.10
2022-10-24T05:05:01.530Z,61.30
2022-10-24T05:07:27.960Z,61.40
2022-10-24T05:09:54.433Z,60.60
2022-10-24T05:12:20.880Z,61.30
2022-10-24T05:14:47.367Z,61.30
2022-10-24T05:17:13.793Z,60.70
2022-10-24T05:19:40.245Z,61.50
2022-10-24T05:22:10.018Z,60.90
2022-10-24T05:24:37.492Z,60.90
2022-10-24T05:27:03.928Z,61.50
2022-10-24T05:29:30.348Z,61.50
2022-10-24T05:31:56.802Z,60.80
2022-10-24T05:34:23.218Z,61.60
2022-10-24T05:36:49.639Z,61.50
2022-10-24T05:39:16.062Z,60.70
2022-10-24T05:41:44.804Z,60.70
2022-10-24T05:44:13.487Z,61.30
2022-10-24T05:46:39.894Z,60.60
2022-10-24T05:49:06.340Z,61.30
2022-10-24T05:51:32.775Z,60.70
2022-10-24T05:53:59.218Z,60.60
2022-10-24T05:56:25.659Z,61.30
2022-10-24T05:58:52.081Z,61.30
2022-10-24T06:01:18.551Z,60.60
2022-10-24T06:03:44.999Z,61.30
2022-10-24T06:06:11.412Z,60.60
2022-10-24T06:08:37.829Z,61.30
2022-10-24T06:11:04.271Z,60.60
2022-10-24T06:13:35.214Z,61.30
2022-10-24T06:16:02.694Z,61.20
2022-10-24T06:18:29.136Z,60.60
2022-10-24T06:20:56.238Z,60.50
2022-10-24T06:23:22.723Z,61.20
2022-10-24T06:25:49.171Z,61.20
2022-10-24T06:28:15.639Z,61.20
2022-10-24T06:30:42.073Z,61.30
2022-10-24T06:33:08.489Z,61.20
2022-10-24T06:35:34.906Z,61.20
2022-10-24T06:38:01.341Z,61.20
2022-10-24T06:40:27.838Z,60.50
2022-10-24T06:42:54.290Z,61.20
2022-10-24T06:45:20.725Z,61.10
2022-10-24T06:47:51.756Z,61.10
2022-10-24T06:50:20.510Z,60.50
2022-10-24T06:52:46.944Z,61.10
2022-10-24T06:55:13.362Z,61.10
2022-10-24T06:57:39.773Z,61.00
2022-10-24T07:00:06.210Z,60.50
2022-10-24T07:02:32.681Z,61.20
2022-10-24T07:04:59.195Z,61.20
2022-10-24T07:07:25.617Z,61.20
2022-10-24T07:09:52.062Z,60.60
2022-10-24T07:14:49.819Z,61.20
2022-10-24T07:17:16.264Z,61.20
2022-10-24T07:19:42.687Z,61.20
2022-10-24T07:22:09.116Z,60.50
2022-10-24T07:24:35.527Z,61.10
2022-10-24T07:27:01.954Z,61.10
2022-10-24T07:29:28.393Z,60.60
2022-10-24T07:31:54.828Z,60.50
2022-10-24T07:34:21.242Z,61.10
2022-10-24T07:36:47.676Z,60.50
2022-10-24T07:39:14.096Z,61.20
2022-10-24T07:41:40.565Z,60.60
2022-10-24T07:44:06.978Z,60.60
2022-10-24T07:46:33.415Z,61.10
2022-10-24T07:48:59.856Z,61.30
2022-10-24T07:51:26.277Z,60.60
2022-10-24T07:53:52.741Z,60.50
2022-10-24T07:56:19.173Z,61.20
2022-10-24T07:58:45.602Z,61.20
2022-10-24T08:01:12.097Z,60.50
2022-10-24T08:03:38.580Z,60.50
2022-10-24T08:06:05.013Z,61.20
2022-10-24T08:08:37.219Z,61.20
2022-10-24T08:11:03.967Z,60.60
2022-10-24T08:13:30.436Z,61.20
2022-10-24T08:15:56.914Z,61.20
2022-10-24T08:18:23.364Z,60.50
2022-10-24T08:20:49.952Z,60.50
2022-10-24T08:23:16.425Z,61.20
2022-10-24T08:25:42.865Z,61.20
2022-10-24T08:28:09.413Z,61.10
2022-10-24T08:30:35.888Z,60.50
2022-10-24T08:33:02.352Z,60.50
2022-10-24T08:35:28.803Z,61.10
2022-10-24T08:37:55.243Z,61.10
2022-10-24T08:40:21.788Z,60.50
2022-10-24T08:42:48.674Z,61.20
2022-10-24T08:45:15.403Z,61.10
2022-10-24T08:47:41.831Z,61.20
2022-10-24T08:50:08.244Z,60.50
2022-10-24T08:52:34.677Z,61.30
2022-10-24T08:55:04.783Z,60.50
2022-10-24T09:00:04.795Z,60.50
2022-10-24T09:02:31.426Z,61.20
2022-10-24T09:04:58.036Z,60.60
2022-10-24T09:09:55.804Z,60.60
2022-10-24T09:12:22.225Z,61.30
2022-10-24T09:14:48.661Z,61.20
2022-10-24T09:17:15.221Z,61.20
2022-10-24T09:19:41.679Z,61.20
2022-10-24T09:22:08.100Z,60.60
2022-10-24T09:24:34.547Z,61.20
2022-10-24T09:27:00.973Z,61.20
2022-10-24T09:29:27.384Z,60.60
2022-10-24T09:31:53.818Z,60.50
2022-10-24T09:34:20.228Z,61.20
2022-10-24T09:36:46.677Z,60.50
2022-10-24T09:39:13.096Z,61.20
2022-10-24T09:41:39.542Z,60.50
2022-10-24T09:44:05.967Z,61.20
2022-10-24T09:46:32.388Z,61.20
2022-10-24T09:48:58.876Z,61.10
2022-10-24T09:51:25.297Z,60.40
2022-10-24T09:53:51.710Z,61.00
2022-10-24T09:56:18.135Z,61.10
2022-10-24T09:58:44.576Z,60.60
2022-10-24T10:01:11.133Z,60.70
2022-10-24T10:03:37.645Z,61.40
2022-10-24T10:06:04.064Z,61.20
2022-10-24T10:08:30.471Z,61.20
2022-10-24T10:10:56.887Z,60.70
2022-10-24T10:13:23.293Z,62.00
2022-10-24T10:15:49.713Z,60.70
2022-10-24T10:18:16.133Z,61.60
2022-10-24T10:20:42.557Z,60.90
2022-10-24T10:23:08.977Z,60.90
2022-10-24T10:25:35.409Z,61.20
2022-10-24T10:28:03.172Z,61.30
2022-10-24T10:30:29.800Z,62.30
2022-10-24T10:32:56.227Z,63.00
2022-10-24T10:35:22.648Z,62.90
2022-10-24T10:37:49.082Z,62.10
2022-10-24T10:40:15.495Z,61.30
2022-10-24T10:42:42.090Z,61.90
2022-10-24T10:45:08.615Z,61.50
2022-10-24T10:47:35.031Z,62.20
2022-10-24T10:50:01.467Z,62.00
2022-10-24T10:52:27.919Z,61.80
2022-10-24T10:54:54.344Z,62.30
2022-10-24T10:57:20.768Z,62.40
2022-10-24T10:59:47.179Z,62.00
2022-10-24T11:02:13.749Z,62.60
2022-10-24T11:04:40.260Z,62.70
2022-10-24T11:07:06.688Z,62.30
2022-10-24T11:09:33.113Z,62.60
2022-10-24T11:11:59.523Z,62.20
2022-10-24T11:14:25.951Z,62.80
2022-10-24T11:16:52.377Z,62.70
2022-10-24T11:19:18.800Z,62.70
2022-10-24T11:21:45.224Z,62.10
2022-10-24T11:24:13.680Z,62.70
2022-10-24T11:26:40.461Z,62.30
2022-10-24T11:29:06.883Z,62.20
2022-10-24T11:31:33.308Z,61.70
2022-10-24T11:33:59.746Z,61.50
2022-10-24T11:36:26.244Z,61.50
2022-10-24T11:38:52.712Z,62.20
2022-10-24T11:41:19.147Z,61.80
2022-10-24T11:43:45.567Z,62.50
2022-10-24T11:46:13.902Z,62.20
2022-10-24T11:48:40.364Z,62.40
2022-10-24T11:51:06.813Z,61.60
2022-10-24T11:53:33.261Z,62.20
2022-10-24T11:55:59.687Z,61.40
2022-10-24T11:58:26.112Z,62.20
2022-10-24T12:00:52.528Z,61.80
2022-10-24T12:03:18.959Z,61.40
2022-10-24T12:05:45.389Z,62.00
2022-10-24T12:08:11.803Z,64.00
2022-10-24T12:10:38.233Z,61.30
2022-10-24T12:13:04.644Z,61.90
2022-10-24T12:15:32.251Z,61.20
2022-10-24T12:17:59.029Z,61.90
2022-10-24T12:20:25.473Z,61.50
2022-10-24T12:22:51.900Z,62.20
2022-10-24T12:25:18.348Z,61.80
2022-10-24T12:27:44.763Z,62.40
2022-10-24T12:30:11.184Z,61.70
2022-10-24T12:32:37.634Z,61.70
2022-10-24T12:35:29.897Z,62.20
2022-10-24T12:37:50.463Z,62.20
2022-10-24T12:40:16.884Z,61.30
2022-10-24T12:42:43.515Z,61.50
2022-10-24T12:45:10.150Z,62.20
2022-10-24T12:47:36.587Z,62.50
2022-10-24T12:50:03.000Z,62.10
2022-10-24T12:52:29.422Z,62.70
2022-10-24T12:54:55.864Z,62.60
2022-10-24T12:57:22.272Z,62.70
2022-10-24T12:59:48.720Z,61.90
2022-10-24T13:02:15.248Z,62.60
2022-10-24T13:04:41.837Z,62.00
2022-10-24T13:07:08.312Z,62.10
2022-10-24T13:09:34.773Z,62.60
2022-10-24T13:12:01.196Z,61.50
2022-10-24T13:14:27.607Z,61.60
2022-10-24T13:16:54.029Z,61.60
2022-10-24T13:19:20.453Z,62.20
2022-10-24T13:21:47.169Z,62.00
2022-10-24T13:24:13.709Z,62.60
2022-10-24T13:26:40.127Z,61.40
2022-10-24T13:29:06.598Z,61.00
2022-10-24T13:31:33.007Z,61.30
2022-10-24T13:33:59.414Z,62.40
2022-10-24T13:36:28.553Z,62.70
2022-10-24T13:38:55.195Z,62.10
2022-10-24T13:41:21.730Z,62.20
2022-10-24T13:43:48.149Z,62.10
2022-10-24T13:46:14.594Z,62.70
2022-10-24T13:48:41.020Z,62.60
2022-10-24T13:51:07.470Z,61.90
2022-10-24T13:53:33.892Z,62.30
2022-10-24T13:56:00.335Z,62.40
2022-10-24T13:58:26.763Z,62.30
2022-10-24T14:00:53.183Z,61.50
2022-10-24T14:03:19.626Z,62.20
2022-10-24T14:05:46.061Z,62.90
2022-10-24T14:08:12.565Z,62.10
2022-10-24T14:10:38.997Z,61.40
2022-10-24T14:13:05.446Z,62.10
2022-10-24T14:15:31.860Z,61.40
2022-10-24T14:17:58.284Z,62.10
2022-10-24T14:20:24.728Z,61.60
2022-10-24T14:22:51.154Z,62.30
2022-10-24T14:25:20.671Z,61.60
2022-10-24T14:27:50.267Z,62.30
2022-10-24T14:30:16.726Z,61.70
2022-10-24T14:32:43.142Z,61.60
2022-10-24T14:35:09.574Z,62.30
2022-10-24T14:37:36.011Z,62.30
2022-10-24T14:40:02.483Z,61.50
2022-10-24T14:42:28.914Z,62.20
2022-10-24T14:44:58.293Z,62.10
2022-10-24T14:47:25.047Z,62.00
2022-10-24T14:49:51.477Z,61.40
2022-10-24T14:52:17.919Z,62.10
2022-10-24T14:54:44.343Z,62.00
2022-10-24T14:57:13.546Z,62.10
2022-10-24T14:59:40.124Z,61.40
2022-10-24T15:02:06.551Z,61.40
2022-10-24T15:04:32.970Z,61.30
2022-10-24T15:06:59.391Z,61.80
2022-10-24T15:09:25.807Z,62.40
2022-10-24T15:11:52.242Z,61.50
2022-10-24T15:14:18.685Z,62.20
2022-10-24T15:16:45.105Z,62.20
2022-10-24T15:19:11.548Z,62.30
2022-10-24T15:21:37.993Z,61.60
2022-10-24T15:24:04.424Z,62.30
2022-10-24T15:26:30.874Z,61.50
2022-10-24T15:28:57.344Z,62.30
2022-10-24T15:31:23.784Z,61.60
2022-10-24T15:33:50.220Z,61.50
2022-10-24T15:36:16.663Z,62.10
2022-10-24T15:38:43.106Z,62.10
2022-10-24T15:41:09.530Z,61.60
2022-10-24T15:43:35.945Z,62.20
2022-10-24T15:46:02.364Z,62.20
2022-10-24T15:48:28.777Z,62.30
2022-10-24T15:50:55.210Z,61.50
2022-10-24T15:53:21.628Z,61.60
2022-10-24T15:55:48.068Z,62.20
2022-10-24T15:58:14.490Z,62.10
2022-10-24T16:00:40.980Z,61.50
2022-10-24T16:03:07.450Z,62.00
2022-10-24T16:05:33.898Z,62.00
2022-10-24T16:08:00.320Z,62.00
2022-10-24T16:10:26.757Z,61.20
2022-10-24T16:12:53.193Z,61.90
2022-10-24T16:15:19.669Z,61.90
2022-10-24T16:17:46.493Z,61.80
2022-10-24T16:20:13.267Z,61.30
2022-10-24T16:22:39.717Z,62.00
2022-10-24T16:25:06.173Z,61.30
2022-10-24T16:27:32.602Z,61.40
2022-10-24T16:29:59.037Z,61.40
2022-10-24T16:32:25.504Z,62.10
2022-10-24T16:34:51.940Z,62.20
2022-10-24T16:37:18.372Z,61.90
2022-10-24T16:42:11.760Z,61.40
2022-10-24T16:44:38.183Z,62.20
2022-10-24T16:47:04.625Z,63.70
2022-10-24T16:49:31.045Z,62.30
2022-10-24T16:51:57.479Z,61.60
2022-10-24T16:54:23.897Z,62.30
2022-10-24T16:56:53.602Z,61.50
2022-10-24T16:59:20.592Z,62.30
2022-10-24T17:01:47.122Z,61.60
2022-10-24T17:04:13.606Z,61.50
2022-10-24T17:06:40.034Z,62.20
2022-10-24T17:09:06.474Z,62.10
2022-10-24T17:11:44.767Z,61.50
2022-10-24T17:14:12.082Z,62.10
2022-10-24T17:16:38.507Z,62.10
2022-10-24T17:19:15.570Z,62.10
2022-10-24T17:21:42.825Z,61.50
2022-10-24T17:24:09.263Z,62.10
2022-10-24T17:26:35.678Z,62.10
2022-10-24T17:29:02.117Z,62.10
2022-10-24T17:31:28.530Z,61.40
2022-10-24T17:33:54.944Z,62.20
2022-10-24T17:36:21.369Z,62.00
2022-10-24T17:38:47.795Z,62.00
2022-10-24T17:41:14.207Z,61.50
2022-10-24T17:43:40.617Z,61.60
2022-10-24T17:46:07.040Z,62.30
2022-10-24T17:48:33.451Z,61.50
2022-10-24T17:50:59.896Z,61.50
2022-10-24T17:53:26.365Z,62.10
2022-10-24T17:55:52.785Z,62.10
2022-10-24T17:58:19.220Z,62.50
2022-10-24T18:00:45.716Z,61.20
2022-10-24T18:03:12.212Z,61.90
2022-10-24T18:05:39.000Z,61.20
2022-10-24T18:08:05.650Z,61.20
2022-10-24T18:10:32.073Z,61.20
2022-10-24T18:15:29.829Z,61.90
2022-10-24T18:17:56.290Z,62.00
2022-10-24T18:20:22.707Z,61.30
2022-10-24T18:22:49.429Z,62.90
2022-10-24T18:25:20.243Z,61.20
2022-10-24T18:27:49.288Z,61.70
2022-10-24T18:30:15.712Z,61.30
2022-10-24T18:32:42.133Z,61.90
2022-10-24T18:35:08.580Z,61.90
2022-10-24T18:37:34.993Z,61.20
2022-10-24T18:40:01.418Z,61.60
2022-10-24T18:42:27.844Z,62.30
2022-10-24T18:44:54.261Z,62.10
2022-10-24T18:47:23.340Z,62.20
2022-10-24T18:49:52.084Z,61.40
2022-10-24T18:52:18.546Z,62.10
2022-10-24T18:54:44.979Z,62.00
2022-10-24T18:57:11.400Z,62.10
2022-10-24T18:59:37.841Z,62.20
2022-10-24T19:02:04.510Z,61.30
2022-10-24T19:04:31.011Z,61.40
2022-10-24T19:06:57.455Z,62.00
2022-10-24T19:09:23.882Z,61.50
2022-10-24T19:11:50.339Z,61.40
2022-10-24T19:14:16.768Z,62.00
2022-10-24T19:16:43.200Z,62.00
2022-10-24T19:19:09.633Z,62.10
2022-10-24T19:21:36.124Z,61.40
2022-10-24T19:24:02.544Z,62.00
2022-10-24T19:26:29.022Z,62.00
2022-10-24T19:28:55.468Z,62.10
2022-10-24T19:31:21.900Z,61.40
2022-10-24T19:33:48.338Z,62.00
2022-10-24T19:36:19.138Z,62.10
2022-10-24T19:38:45.893Z,61.40
2022-10-24T19:41:12.320Z,61.30
2022-10-24T19:43:38.746Z,61.90
2022-10-24T19:46:19.414Z,62.00
2022-10-24T19:48:46.437Z,61.90
2022-10-24T19:51:12.858Z,61.30
2022-10-24T19:53:39.289Z,62.10
2022-10-24T19:56:05.727Z,61.50
2022-10-24T19:58:32.194Z,62.00
2022-10-24T20:00:58.686Z,61.50
2022-10-24T20:03:25.124Z,62.00
2022-10-24T20:05:51.554Z,62.10
2022-10-24T20:08:17.978Z,62.10
2022-10-24T20:10:44.413Z,61.40
2022-10-24T20:13:10.858Z,62.10
2022-10-24T20:15:37.287Z,62.00
2022-10-24T20:18:03.713Z,62.00
2022-10-24T20:20:30.153Z,61.20
2022-10-24T20:22:56.575Z,61.90
2022-10-24T20:25:23.034Z,61.80
2022-10-24T20:27:49.512Z,61.90
2022-10-24T20:30:15.961Z,61.30
2022-10-24T20:32:42.382Z,61.90
2022-10-24T20:35:08.816Z,61.80
2022-10-24T20:37:35.264Z,61.10
2022-10-24T20:40:01.679Z,61.10
2022-10-24T20:42:28.111Z,61.00
2022-10-24T20:44:54.572Z,61.60
2022-10-24T20:47:21.004Z,61.70
2022-10-24T20:49:47.437Z,61.10
2022-10-24T20:52:13.890Z,61.60
2022-10-24T20:54:40.309Z,61.00
2022-10-24T20:57:06.758Z,61.50
2022-10-24T20:59:33.172Z,61.60
2022-10-24T21:01:59.713Z,60.90
2022-10-24T21:04:26.224Z,61.60
2022-10-24T21:06:52.673Z,61.60
2022-10-24T21:09:19.096Z,61.40
2022-10-24T21:11:45.503Z,60.90
2022-10-24T21:14:11.930Z,61.50
2022-10-24T21:16:38.355Z,61.50
2022-10-24T21:19:04.781Z,61.50
2022-10-24T21:21:31.205Z,60.80
2022-10-24T21:24:02.246Z,61.50
2022-10-24T21:26:32.138Z,61.50
2022-10-24T21:29:08.586Z,61.40
2022-10-24T21:31:41.186Z,60.80
2022-10-24T21:34:07.606Z,61.40
2022-10-24T21:36:34.022Z,61.40
2022-10-24T21:39:00.441Z,61.40
2022-10-24T21:41:26.857Z,60.70
2022-10-24T21:43:53.261Z,61.30
2022-10-24T21:46:19.676Z,61.40
2022-10-24T21:48:46.095Z,61.30
2022-10-24T21:51:12.513Z,60.60
2022-10-24T21:53:38.933Z,60.70
2022-10-24T21:56:05.405Z,60.50
2022-10-24T21:58:31.821Z,60.50
2022-10-24T22:00:58.341Z,60.50
2022-10-24T22:03:24.832Z,61.30
2022-10-24T22:05:51.280Z,61.20
2022-10-24T22:08:17.698Z,61.20
2022-10-24T22:10:44.126Z,60.50
2022-10-24T22:13:10.541Z,61.10
2022-10-24T22:15:36.998Z,60.60
2022-10-24T22:18:03.466Z,61.20
2022-10-24T22:20:29.916Z,60.60
2022-10-24T22:22:56.357Z,61.10
2022-10-24T22:25:22.764Z,61.20
2022-10-24T22:27:49.239Z,61.20
2022-10-24T22:30:15.676Z,60.40
2022-10-24T22:32:42.107Z,61.10
2022-10-24T22:35:08.521Z,61.10
2022-10-24T22:37:34.974Z,61.00
2022-10-24T22:40:01.384Z,60.30
2022-10-24T22:42:27.834Z,61.00
2022-10-24T22:44:54.273Z,61.00
2022-10-24T22:47:20.690Z,60.90
2022-10-24T22:49:47.129Z,60.20
2022-10-24T22:52:13.549Z,60.90
2022-10-24T22:54:39.968Z,60.80
2022-10-24T22:57:06.388Z,60.70
2022-10-24T22:59:32.820Z,60.70
2022-10-24T23:01:59.485Z,60.00
2022-10-24T23:04:26.096Z,60.60
2022-10-24T23:06:52.508Z,60.80
2022-10-24T23:09:18.921Z,60.60
2022-10-24T23:11:45.329Z,60.00
2022-10-24T23:14:11.877Z,60.70
2022-10-24T23:16:38.370Z,60.60
2022-10-24T23:19:04.822Z,60.50
2022-10-24T23:21:31.266Z,59.90
2022-10-24T23:23:57.684Z,60.60
2022-10-24T23:26:24.087Z,60.50
2022-10-24T23:28:50.545Z,60.50
2022-10-24T23:31:16.970Z,59.90
2022-10-24T23:33:43.424Z,60.50
2022-10-24T23:36:09.827Z,60.40
2022-10-24T23:38:36.254Z,60.40
2022-10-24T23:41:02.673Z,59.80
2022-10-24T23:43:29.092Z,60.40
2022-10-24T23:45:55.533Z,60.30
2022-10-24T23:48:21.955Z,60.30
2022-10-24T23:50:48.379Z,59.80
2022-10-24T23:53:14.788Z,60.30
2022-10-24T23:55:41.205Z,60.40
2022-10-24T23:58:07.620Z,60.20
